Flight Track Log - Related Links

Times and Time Zones

All times are in EDT time to prevent confusion due to time zone crossing. See the CPZ5718 flight status page for this flight to view local times or setup timezone preferences in your user account.

Time Position Orientation Groundspeed Altitude Reporting Facility
EDT Latitude Longitude Course Direction KTS MPH feet Rate Location/Type
Sun 09:27:48 AM 42.7214 -73.8078 291° West 151 174 1,300  Level Boston Center
Sun 09:28:55 AM 42.7250 -73.8589 276° West 206 237 2,800 1,640 Climbing Boston Center
Sun 09:30:00 AM 42.9070 -74.3447 289° West  Level FlightAware Approximate
Sun 09:30:18 AM 42.7972 -73.9086 333° Northwest 253 291 5,400  Level Boston Center
Sun 09:31:00 AM 42.9429 -74.4881 289° West  Level FlightAware Approximate
Sun 09:31:18 AM 42.8675 -73.9642 330° Northwest 258 297 8,500  Level Boston Center
Sun 09:32:00 AM 42.9836 -74.6336 291° West  Level FlightAware Approximate
Sun 09:32:18 AM 42.9333 -74.0197 328° Northwest 272 313 10,600  Level Boston Center
Sun 09:33:00 AM 43.0250 -74.7788 291° West  Level FlightAware Approximate
Sun 09:33:18 AM 43.0097 -74.0783 331° Northwest 299 344 12,900  Level Boston Center
Sun 09:34:18 AM 43.0858 -74.1431 328° Northwest 315 362 14,900 2,050 Climbing Boston Center
Sun 09:35:18 AM 43.1492 -74.2331 314° West 315 362 17,000 1,800 Climbing Boston Center
Sun 09:36:18 AM 43.1722 -74.3503 285° West 309 356 18,500 1,600 Climbing Boston Center
Sun 09:37:18 AM 43.1908 -74.4792 281° West 330 380 20,200 1,550 Climbing Boston Center
Sun 09:38:18 AM 43.2133 -74.6108 283° West 346 398 21,600 1,450 Climbing Boston Center
Sun 09:39:18 AM 43.2358 -74.7458 283° West 359 413 23,100 1,500 Climbing Boston Center
Sun 09:40:18 AM 43.2578 -74.8864 282° West 365 420 24,600 1,388 Climbing Boston Center
Sun 09:41:19 AM 43.2778 -75.0211 282° West 370 426 25,900 1,050 Climbing Boston Center
Sun 09:42:18 AM 43.2961 -75.1331 283° West 370 426 26,700 958 Climbing Boston Center
Sun 09:43:18 AM 43.3233 -75.3028 282° West 389 448 27,800 1,000 Climbing Boston Center
Sun 09:44:18 AM 43.3464 -75.4525 282° West 402 463 28,700 850 Climbing Boston Center
Sun 09:45:18 AM 43.3694 -75.6019 282° West 402 463 29,500 750 Climbing Boston Center
Sun 09:46:18 AM 43.3922 -75.7547 282° West 402 463 30,200 700 Climbing Boston Center
Sun 09:47:18 AM 43.4169 -75.9106 282° West 408 470 30,900 800 Climbing Boston Center
Sun 09:48:18 AM 43.4389 -76.0692 281° West 420 483 31,800 800 Climbing Boston Center
Sun 09:49:18 AM 43.4633 -76.2222 282° West 420 483 32,500 750 Climbing Boston Center
Sun 09:50:18 AM 43.4850 -76.3781 281° West 420 483 33,300 750 Climbing Boston Center
Sun 09:51:18 AM 43.5067 -76.5314 281° West 413 475 34,000 350 Climbing Boston Center
Sun 09:52:18 AM 43.5281 -76.6903 281° West 413 475 34,000  Level Boston Center
Sun 09:53:18 AM 43.5514 -76.8497 281° West 419 482 34,000  Level Boston Center
Sun 09:55:41 AM 43.5833 -77.2167 277° West 430 495 34,000  Level Toronto Center
Sun 09:56:41 AM 43.6000 -77.3833 278° West 430 495 34,000  Level Toronto Center
Sun 09:57:41 AM 43.6500 -77.5333 295° West 430 495 34,000  Level Toronto Center
Sun 09:58:41 AM 43.6667 -77.7000 278° West 430 495 34,000  Level Toronto Center
Sun 09:59:41 AM 43.6833 -77.8500 279° West 430 495 34,000  Level Toronto Center
Sun 10:00:41 AM 43.7000 -78.0167 278° West 430 495 34,000  Level Toronto Center
Sun 10:01:41 AM 43.7167 -78.1833 278° West 420 483 34,000  Level Toronto Center
Sun 10:02:41 AM 43.7333 -78.3333 279° West 420 483 34,000  Level Toronto Center
Sun 10:03:41 AM 43.7667 -78.5167 284° West 430 495 34,000  Level Toronto Center
Sun 10:04:41 AM 43.7833 -78.6667 279° West 430 495 34,000  Level Toronto Center
Sun 10:05:41 AM 43.8000 -78.8167 279° West 430 495 34,000  Level Toronto Center
Sun 10:06:41 AM 43.8333 -79.0167 283° West 430 495 34,000  Level Toronto Center
Sun 10:07:41 AM 43.8500 -79.1500 280° West 430 495 34,000  Level Toronto Center
Sun 10:08:41 AM 43.8667 -79.3333 277° West 430 495 34,000  Level Toronto Center
Sun 10:09:41 AM 43.8833 -79.4667 280° West 430 495 34,000  Level Toronto Center
Sun 10:10:41 AM 43.9000 -79.6500 277° West 430 495 34,000  Level Toronto Center
Sun 10:11:41 AM 43.9167 -79.8167 278° West 430 495 34,000  Level Toronto Center
Sun 10:12:41 AM 43.9333 -79.9833 278° West 430 495 34,000  Level Toronto Center
Sun 10:13:41 AM 43.9500 -80.1500 278° West 430 495 34,000  Level Toronto Center
Sun 10:14:41 AM 43.9667 -80.3000 279° West 430 495 34,000  Level Toronto Center
Sun 10:15:41 AM 44.0000 -80.4667 286° West 430 495 34,000  Level Toronto Center
Sun 10:16:41 AM 44.0167 -80.6333 278° West 430 495 34,000  Level Toronto Center
Sun 10:17:41 AM 44.0333 -80.8000 278° West 430 495 34,000  Level Toronto Center
Sun 10:18:41 AM 44.0333 -80.9500 270° West 430 495 34,000  Level Toronto Center
Sun 10:19:41 AM 44.0500 -81.1333 277° West 430 495 34,000  Level Toronto Center
Sun 10:20:41 AM 44.0667 -81.3000 278° West 430 495 34,000  Level Toronto Center
Sun 10:21:41 AM 44.0833 -81.4667 278° West 430 495 34,000  Level Toronto Center
Sun 10:22:41 AM 44.1000 -81.6333 278° West 430 495 34,000  Level Toronto Center
Sun 10:23:41 AM 44.1333 -81.8000 286° West 430 495 34,000  Level Toronto Center
Sun 10:24:41 AM 44.1333 -81.9500 270° West 440 506 34,000  Level Toronto Center
Sun 10:25:41 AM 44.1500 -82.1167 278° West 430 495 34,000  Level Toronto Center
Sun 10:26:41 AM 44.1667 -82.3000 277° West 430 495 34,000  Level Toronto Center
Sun 10:27:41 AM 44.1833 -82.4500 279° West 430 495 34,000  Level Toronto Center
Sun 10:28:41 AM 44.2000 -82.6333 277° West 430 495 34,000  Level Toronto Center
Sun 10:29:41 AM 44.2000 -82.8000 270° West 430 495 34,000  Level Toronto Center
Sun 10:30:41 AM 44.2167 -82.9667 278° West 430 495 34,000  Level Toronto Center
Sun 10:31:41 AM 44.2333 -83.1167 279° West 430 495 34,000  Level Toronto Center
Sun 10:32:41 AM 44.2500 -83.2833 278° West 430 495 34,000  Level Toronto Center
Sun 10:33:41 AM 44.2667 -83.4500 278° West 430 495 34,000  Level Toronto Center
Sun 10:34:41 AM 44.2833 -83.6167 278° West 430 495 34,000  Level Toronto Center
Sun 10:35:41 AM 44.2833 -83.7833 270° West 440 506 34,000  Level Toronto Center
Sun 10:36:11 AM 44.3061 -83.8531 295° West 432 497 34,000  Level Minneapolis Center
Sun 10:37:12 AM 44.3175 -84.0192 276° West 432 497 34,000  Level Minneapolis Center
Sun 10:38:14 AM 44.3328 -84.2192 276° West 432 497 34,000  Level Minneapolis Center
Sun 10:39:15 AM 44.3461 -84.3858 276° West 433 498 34,000  Level Minneapolis Center
Sun 10:40:28 AM 44.3606 -84.5856 276° West 432 497 34,000  Level Minneapolis Center
Sun 10:41:30 AM 44.3714 -84.7514 275° West 430 495 34,000  Level Minneapolis Center
Sun 10:42:31 AM 44.3833 -84.9181 276° West 431 496 34,000  Level Minneapolis Center
Sun 10:43:32 AM 44.3933 -85.0822 275° West 428 493 34,000  Level Minneapolis Center
Sun 10:44:33 AM 44.4053 -85.2475 276° West 428 493 34,000  Level Minneapolis Center
Sun 10:45:35 AM 44.4153 -85.4144 275° West 429 494 34,000  Level Minneapolis Center
Sun 10:46:36 AM 44.4247 -85.5808 275° West 430 495 34,000  Level Minneapolis Center
Sun 10:47:49 AM 44.4358 -85.7475 275° West 428 493 34,000  Level Minneapolis Center
Sun 10:48:51 AM 44.4469 -85.9469 275° West 426 490 34,000  Level Minneapolis Center
Sun 10:49:52 AM 44.4569 -86.1142 275° West 428 493 34,000 -148 Level Minneapolis Center
Sun 10:50:53 AM 44.4681 -86.3139 275° West 426 490 33,700 -582 Descending Minneapolis Center
Sun 10:52:06 AM 44.4769 -86.4828 274° West 432 497 32,700 -756 Descending Minneapolis Center
Sun 10:53:08 AM 44.4881 -86.6839 274° West 432 497 32,000 -341 Descending Minneapolis Center
Sun 10:54:09 AM 44.4964 -86.8514 274° West 431 496 32,000  Level Minneapolis Center
Sun 10:55:10 AM 44.5042 -87.0192 274° West 433 498 32,000  Level Minneapolis Center
Sun 10:56:12 AM 44.5128 -87.1892 274° West 436 502 32,000  Level Minneapolis Center
Sun 10:57:13 AM 44.5211 -87.3569 274° West 434 499 32,000  Level Minneapolis Center
Sun 10:58:14 AM 44.5283 -87.5278 273° West 438 504 32,000  Level Minneapolis Center
Sun 10:59:15 AM 44.5364 -87.6967 274° West 436 502 32,000  Level Minneapolis Center
Sun 11:00:17 AM 44.5428 -87.8658 273° West 435 501 32,000  Level Minneapolis Center
Sun 11:01:18 AM 44.5481 -88.0386 273° West 428 493 32,000  Level Minneapolis Center
Sun 11:02:19 AM 44.5569 -88.2056 274° West 429 494 32,000  Level Minneapolis Center
Sun 11:03:21 AM 44.5792 -88.4003 279° West 434 499 32,000  Level Minneapolis Center
Sun 11:04:22 AM 44.5986 -88.5664 279° West 433 498 32,000  Level Minneapolis Center
Sun 11:05:23 AM 44.6183 -88.7342 279° West 435 501 32,000  Level Minneapolis Center
Sun 11:06:24 AM 44.6372 -88.9044 279° West 440 506 32,000  Level Minneapolis Center
Sun 11:07:26 AM 44.6561 -89.0739 279° West 441 507 32,000  Level Minneapolis Center
Sun 11:08:27 AM 44.6742 -89.2483 278° West 449 517 32,000  Level Minneapolis Center
Sun 11:09:28 AM 44.6933 -89.4164 279° West 443 510 32,000  Level Minneapolis Center
Sun 11:10:30 AM 44.7144 -89.6106 279° West 436 502 32,000  Level Minneapolis Center
Sun 11:11:31 AM 44.7319 -89.7767 278° West 432 497 32,000  Level Minneapolis Center
Sun 11:12:32 AM 44.7486 -89.9422 278° West 430 495 32,000  Level Minneapolis Center
Sun 11:13:34 AM 44.7658 -90.1089 278° West 430 495 32,000  Level Minneapolis Center
Sun 11:14:35 AM 44.7833 -90.2761 278° West 433 498 32,000  Level Minneapolis Center
Sun 11:15:36 AM 44.7997 -90.4456 278° West 437 503 32,000  Level Minneapolis Center
Sun 11:16:38 AM 44.8178 -90.6297 278° West 434 499 32,000  Level Minneapolis Center
Sun 11:17:40 AM 44.8342 -90.7936 278° West 427 491 32,000  Level Minneapolis Center
Sun 11:18:41 AM 44.8492 -90.9550 278° West 420 483 32,000 -148 Level Minneapolis Center
Sun 11:19:42 AM 44.8628 -91.1142 277° West 414 476 31,700 -1,463 Descending Minneapolis Center
Sun 11:20:44 AM 44.8772 -91.2747 277° West 415 478 29,000 -2,634 Descending Minneapolis Center
Sun 11:21:45 AM 44.8914 -91.4303 277° West 406 467 26,300 -2,656 Descending Minneapolis Center
Sun 11:22:46 AM 44.9142 -91.5814 282° West 397 457 23,600 -2,927 Descending Minneapolis Center
Sun 11:23:48 AM 44.9483 -91.7578 285° West 392 451 20,300 -2,878 Descending Minneapolis Center
Sun 11:24:49 AM 44.9772 -91.9017 286° West 386 444 17,700 -2,390 Descending Minneapolis Center
Sun 11:25:51 AM 45.0025 -92.0342 285° West 353 406 15,400 -2,293 Descending Minneapolis Center
Sun 11:26:52 AM 45.0267 -92.1667 285° West 351 404 13,000 -2,098 Descending Minneapolis Center
Sun 11:27:54 AM 45.0478 -92.2950 283° West 339 390 11,100 -976 Descending Minneapolis Center
Sun 11:28:55 AM 45.0300 -92.4089 258° West 294 338 11,000 -49 Descending Minneapolis Center
Sun 11:29:57 AM 45.0119 -92.5233 257° West 301 346 11,000  Level Minneapolis Center
Sun 11:30:58 AM 44.9906 -92.6586 257° West 298 343 11,000  Level Minneapolis Center
Sun 11:32:00 AM 44.9725 -92.7714 257° West 296 341 11,000 -195 Level Minneapolis Center
Sun 11:33:01 AM 44.9536 -92.8886 257° West 306 352 10,600 -829 Descending Minneapolis Center
Sun 11:34:03 AM 44.9364 -92.9953 257° West 282 325 9,300 -1,171 Descending Minneapolis Center
Sun 11:35:04 AM 44.9506 -93.0911 282° West 288 331 8,200 -878 Descending Minneapolis Center
Sun 11:36:06 AM 44.9969 -93.1775 307° West 281 323 7,500 -1,171 Descending Minneapolis Center
Sun 11:37:07 AM 45.0319 -93.2708 298° West 273 314 5,800 -1,707 Descending Minneapolis Center
Sun 11:38:09 AM 45.0556 -93.3756 288° West 238 274 4,000 -878 Descending Minneapolis Center
Sun 11:39:10 AM 45.0056 -93.3989 198° South 196 226 4,000 -439 Level Minneapolis Center
Sun 11:40:12 AM 44.9556 -93.3681 156° South 204 235 3,100 -871 Descending Minneapolis Center

Login

Don't have an account? Register now (free) for customized features, flight alerts, and more!